createdAt,value
2017-10-18T00:00:14.187Z,96.57
2017-10-18T00:02:42.637Z,103.07
2017-10-18T00:05:11.105Z,96.10
2017-10-18T00:07:40.350Z,82.33
2017-10-18T00:10:08.809Z,68.77
2017-10-18T00:12:37.313Z,82.93
2017-10-18T00:15:05.782Z,87.20
2017-10-18T00:17:34.229Z,86.33
2017-10-18T00:20:03.469Z,76.90
2017-10-18T00:22:31.927Z,94.80
2017-10-18T00:25:00.389Z,84.30
2017-10-18T00:27:29.597Z,77.30
2017-10-18T00:29:58.929Z,102.37
2017-10-18T00:32:27.374Z,82.90
2017-10-18T00:34:56.590Z,72.07
2017-10-18T00:37:25.053Z,75.80
2017-10-18T00:39:54.285Z,103.77
2017-10-18T00:42:22.752Z,95.43
2017-10-18T00:44:51.258Z,86.20
2017-10-18T00:47:19.725Z,71.93
2017-10-18T00:49:48.172Z,77.97
2017-10-18T00:52:16.641Z,88.90
2017-10-18T00:54:45.195Z,82.00
2017-10-18T00:57:13.666Z,79.97
2017-10-18T00:59:42.149Z,81.33
2017-10-18T01:02:10.634Z,76.90
2017-10-18T01:04:39.120Z,78.53
2017-10-18T01:07:07.570Z,84.27
2017-10-18T01:09:36.049Z,81.50
2017-10-18T01:12:05.263Z,81.10
2017-10-18T01:14:33.758Z,84.40
2017-10-18T01:17:02.214Z,75.33
2017-10-18T01:19:31.458Z,101.70
2017-10-18T01:21:59.897Z,72.17
2017-10-18T01:24:29.244Z,86.43
2017-10-18T01:26:57.707Z,65.20
2017-10-18T01:29:26.297Z,86.10
2017-10-18T01:31:54.741Z,85.77
2017-10-18T01:34:23.974Z,84.03
2017-10-18T01:36:52.417Z,68.70
2017-10-18T01:39:21.649Z,108.10
2017-10-18T01:41:50.105Z,87.57
2017-10-18T01:44:19.339Z,91.20
2017-10-18T01:46:47.811Z,82.77
2017-10-18T01:49:16.265Z,103.10
2017-10-18T01:51:45.598Z,71.77
2017-10-18T01:54:14.035Z,98.00
2017-10-18T01:56:43.265Z,75.63
2017-10-18T01:59:11.700Z,90.30
2017-10-18T02:01:40.170Z,106.70
2017-10-18T02:04:08.730Z,94.27
2017-10-18T02:06:37.311Z,95.73
2017-10-18T02:09:05.759Z,85.60
2017-10-18T02:11:35.002Z,119.17
2017-10-18T02:14:03.442Z,72.80
2017-10-18T02:16:32.674Z,85.07
2017-10-18T02:19:01.160Z,86.77
2017-10-18T02:21:29.605Z,70.37
2017-10-18T02:23:58.837Z,83.93
2017-10-18T02:26:27.293Z,78.10
2017-10-18T02:28:55.804Z,75.47
2017-10-18T02:31:24.278Z,79.83
2017-10-18T02:33:52.745Z,70.23
2017-10-18T02:36:21.208Z,100.63
2017-10-18T02:38:50.449Z,88.20
2017-10-18T02:41:18.933Z,109.73
2017-10-18T02:43:47.413Z,86.13
2017-10-18T02:46:15.891Z,104.87
2017-10-18T02:48:44.367Z,89.53
2017-10-18T02:51:12.809Z,86.27
2017-10-18T02:53:42.041Z,86.10
2017-10-18T02:56:10.486Z,78.00
2017-10-18T02:58:38.938Z,110.97
2017-10-18T03:01:07.499Z,79.80
2017-10-18T03:03:35.965Z,75.63
2017-10-18T03:06:04.473Z,92.73
2017-10-18T03:08:32.914Z,85.17
2017-10-18T03:11:02.151Z,91.57
2017-10-18T03:13:30.589Z,78.53
2017-10-18T03:15:59.934Z,96.80
2017-10-18T03:18:28.377Z,75.53
2017-10-18T03:20:57.595Z,98.17
2017-10-18T03:23:26.037Z,94.70
2017-10-18T03:25:54.510Z,74.20
2017-10-18T03:28:22.950Z,88.33
2017-10-18T03:30:51.436Z,71.20
2017-10-18T03:33:19.901Z,93.43
2017-10-18T03:35:48.343Z,96.73
2017-10-18T03:38:17.582Z,78.10
2017-10-18T03:40:46.025Z,74.47
2017-10-18T03:43:14.493Z,85.27
2017-10-18T03:45:43.051Z,74.90
2017-10-18T03:48:11.519Z,86.03
2017-10-18T03:50:39.977Z,85.67
2017-10-18T03:53:09.206Z,89.83
2017-10-18T03:55:37.658Z,88.40
2017-10-18T03:58:06.893Z,77.63
2017-10-18T04:00:35.343Z,78.23
2017-10-18T04:03:03.857Z,60.03
2017-10-18T04:05:32.433Z,71.60
2017-10-18T04:08:00.889Z,63.73
2017-10-18T04:10:30.227Z,87.97
2017-10-18T04:12:58.682Z,90.23
2017-10-18T04:15:27.194Z,82.70
2017-10-18T04:17:55.644Z,75.83
2017-10-18T04:20:24.114Z,78.13
2017-10-18T04:22:53.352Z,81.63
2017-10-18T04:25:21.918Z,72.30
2017-10-18T04:27:50.370Z,62.30
2017-10-18T04:30:19.718Z,73.27
2017-10-18T04:32:48.203Z,103.83
2017-10-18T04:35:16.669Z,80.20
2017-10-18T04:37:45.162Z,81.87
2017-10-18T04:40:13.614Z,71.50
2017-10-18T04:42:42.850Z,70.43
2017-10-18T04:45:11.288Z,64.07
2017-10-18T04:47:40.519Z,76.20
2017-10-18T04:50:09.004Z,102.67
2017-10-18T04:52:37.475Z,79.73
2017-10-18T04:55:05.922Z,97.40
2017-10-18T04:57:35.266Z,72.33
2017-10-18T05:00:03.711Z,66.47
2017-10-18T05:02:32.948Z,82.43
2017-10-18T05:05:01.393Z,77.03
2017-10-18T05:07:30.631Z,100.57
2017-10-18T05:09:59.097Z,81.77
2017-10-18T05:12:27.537Z,70.97
2017-10-18T05:14:56.005Z,86.43
2017-10-18T05:17:24.569Z,62.87
2017-10-18T05:19:53.038Z,56.53
2017-10-18T05:22:21.486Z,72.73
2017-10-18T05:24:50.833Z,79.40
2017-10-18T05:27:19.282Z,76.53
2017-10-18T05:29:47.785Z,76.20
2017-10-18T05:32:16.277Z,68.77
2017-10-18T05:34:44.746Z,63.83
2017-10-18T05:37:13.189Z,92.03
2017-10-18T05:39:42.421Z,78.63
2017-10-18T05:42:10.922Z,92.20
2017-10-18T05:44:39.370Z,68.20
2017-10-18T05:47:08.602Z,86.13
2017-10-18T05:49:37.053Z,73.87
2017-10-18T05:52:07.231Z,71.23
2017-10-18T05:54:35.668Z,84.17
2017-10-18T05:57:04.128Z,83.20
2017-10-18T05:59:33.340Z,71.63
2017-10-18T06:02:01.809Z,73.20
2017-10-18T06:04:31.016Z,99.63
2017-10-18T06:07:00.242Z,64.77
2017-10-18T06:09:28.721Z,74.20
2017-10-18T06:11:57.325Z,68.90
2017-10-18T06:14:25.767Z,87.73
2017-10-18T06:16:54.236Z,63.17
2017-10-18T06:19:23.458Z,61.67
2017-10-18T06:21:51.910Z,54.10
2017-10-18T06:24:21.145Z,52.90
2017-10-18T06:26:49.590Z,52.33
2017-10-18T06:29:18.817Z,48.40
2017-10-18T06:31:47.266Z,61.83
2017-10-18T06:34:15.733Z,71.80
2017-10-18T06:36:44.178Z,72.17
2017-10-18T06:39:12.648Z,50.77
2017-10-18T06:41:41.092Z,84.57
2017-10-18T06:44:09.553Z,75.33
2017-10-18T06:46:38.101Z,52.47
2017-10-18T06:49:06.587Z,62.13
2017-10-18T06:51:35.028Z,47.77
2017-10-18T06:54:04.379Z,64.13
2017-10-18T06:56:32.854Z,61.20
2017-10-18T06:59:01.299Z,48.33
2017-10-18T07:01:30.642Z,56.40
2017-10-18T07:03:59.084Z,74.83
2017-10-18T07:06:28.323Z,76.47
2017-10-18T07:08:56.812Z,61.90
2017-10-18T07:11:25.273Z,78.53
2017-10-18T07:13:53.723Z,48.87
2017-10-18T07:16:23.063Z,67.57
2017-10-18T07:18:51.509Z,66.87
2017-10-18T07:21:20.741Z,71.73
2017-10-18T07:23:49.187Z,57.00
2017-10-18T07:26:18.437Z,62.77
2017-10-18T07:28:46.913Z,53.87
2017-10-18T07:31:15.381Z,58.40
2017-10-18T07:33:43.879Z,59.10
2017-10-18T07:36:12.346Z,63.37
2017-10-18T07:38:40.842Z,71.93
2017-10-18T07:41:09.290Z,64.70
2017-10-18T07:43:38.518Z,74.07
2017-10-18T07:46:06.966Z,65.17
2017-10-18T07:48:36.298Z,73.30
2017-10-18T07:51:04.745Z,73.87
2017-10-18T07:53:33.977Z,62.40
2017-10-18T07:56:02.468Z,98.03
2017-10-18T07:58:31.042Z,68.03
2017-10-18T08:00:59.486Z,49.93
2017-10-18T08:03:28.721Z,55.93
2017-10-18T08:05:57.210Z,46.27
2017-10-18T08:08:25.697Z,60.37
2017-10-18T08:10:54.143Z,46.27
2017-10-18T08:13:22.664Z,52.50
2017-10-18T08:15:51.115Z,68.93
2017-10-18T08:18:19.609Z,62.57
2017-10-18T08:20:48.079Z,65.33
2017-10-18T08:23:16.526Z,69.73
2017-10-18T08:25:44.989Z,60.97
2017-10-18T08:28:13.425Z,52.27
2017-10-18T08:30:41.893Z,72.47
2017-10-18T08:33:11.131Z,46.47
2017-10-18T08:35:39.614Z,64.67
2017-10-18T08:38:08.058Z,65.07
2017-10-18T08:40:37.288Z,41.80
2017-10-18T08:43:05.728Z,59.23
2017-10-18T08:45:34.959Z,45.30
2017-10-18T08:48:03.458Z,84.63
2017-10-18T08:50:32.032Z,59.20
2017-10-18T08:53:00.473Z,65.53
2017-10-18T08:55:29.710Z,57.23
2017-10-18T08:57:58.571Z,70.07
2017-10-18T09:00:27.814Z,54.20
2017-10-18T09:02:56.274Z,44.70
2017-10-18T09:05:24.713Z,47.73
2017-10-18T09:07:53.260Z,60.50
2017-10-18T09:10:21.719Z,48.10
2017-10-18T09:12:50.218Z,37.93
2017-10-18T09:15:18.657Z,48.23
2017-10-18T09:17:47.885Z,37.40
2017-10-18T09:20:16.388Z,46.43
2017-10-18T09:22:44.971Z,43.50
2017-10-18T09:25:13.447Z,43.50
2017-10-18T09:27:41.913Z,52.37
2017-10-18T09:30:10.363Z,73.30
2017-10-18T09:32:39.630Z,66.17
2017-10-18T09:35:08.089Z,78.50
2017-10-18T09:37:36.581Z,95.97
2017-10-18T09:40:05.047Z,74.70
2017-10-18T09:42:33.484Z,66.70
2017-10-18T09:45:01.945Z,85.00
2017-10-18T09:47:30.386Z,66.13
2017-10-18T09:49:58.850Z,62.13
2017-10-18T09:52:28.057Z,63.40
2017-10-18T09:54:56.563Z,44.33
2017-10-18T09:57:25.050Z,43.63
2017-10-18T09:59:53.522Z,49.40
2017-10-18T10:02:21.978Z,41.90
2017-10-18T10:04:51.310Z,29.73
2017-10-18T10:07:19.794Z,39.70
2017-10-18T10:09:48.291Z,69.63
2017-10-18T10:12:16.733Z,51.30
2017-10-18T10:14:45.169Z,50.87
2017-10-18T10:17:13.638Z,28.53
2017-10-18T10:19:42.087Z,61.93
2017-10-18T10:22:10.590Z,57.33
2017-10-18T10:24:39.069Z,44.13
2017-10-18T10:27:07.532Z,61.27
2017-10-18T10:29:36.028Z,56.73
2017-10-18T10:32:04.497Z,38.57
2017-10-18T10:34:32.942Z,44.73
2017-10-18T10:37:01.412Z,57.23
2017-10-18T10:39:29.859Z,45.53
2017-10-18T10:41:58.331Z,39.57
2017-10-18T10:44:26.931Z,50.77
2017-10-18T10:46:55.394Z,54.27
2017-10-18T10:49:23.838Z,42.60
2017-10-18T10:51:54.005Z,48.30
2017-10-18T10:54:22.493Z,47.10
2017-10-18T10:56:50.970Z,48.80
2017-10-18T10:59:19.410Z,34.43
2017-10-18T11:01:49.615Z,35.57
2017-10-18T11:04:18.061Z,40.90
2017-10-18T11:06:46.535Z,35.13
2017-10-18T11:09:14.973Z,34.33
2017-10-18T11:11:44.181Z,41.57
2017-10-18T11:14:13.404Z,22.73
2017-10-18T11:16:41.838Z,35.20
2017-10-18T11:19:10.292Z,38.20
2017-10-18T11:21:38.733Z,35.23
2017-10-18T11:24:08.057Z,62.03
2017-10-18T11:26:36.493Z,34.60
2017-10-18T11:29:04.953Z,39.97
2017-10-18T11:31:33.512Z,50.50
2017-10-18T11:34:01.988Z,40.23
2017-10-18T11:36:30.430Z,36.53
2017-10-18T11:38:59.772Z,46.40
2017-10-18T11:41:28.362Z,34.27
2017-10-18T11:43:56.846Z,31.13
2017-10-18T11:46:25.320Z,38.83
2017-10-18T11:48:53.911Z,44.87
2017-10-18T11:51:23.122Z,31.43
2017-10-18T11:53:51.689Z,39.87
2017-10-18T11:56:20.133Z,60.90
2017-10-18T11:58:49.470Z,47.77
2017-10-18T12:01:17.916Z,38.90
2017-10-18T12:03:47.118Z,56.43
2017-10-18T12:06:16.345Z,23.90
2017-10-18T12:08:44.834Z,28.90
2017-10-18T12:11:13.381Z,22.77
2017-10-18T12:13:42.588Z,35.20
2017-10-18T12:16:12.027Z,33.67
2017-10-18T12:18:40.465Z,35.20
2017-10-18T12:21:09.689Z,22.60
2017-10-18T12:23:38.191Z,23.40
2017-10-18T12:26:06.650Z,30.93
2017-10-18T12:28:35.148Z,25.17
2017-10-18T12:31:03.610Z,46.17
2017-10-18T12:33:32.062Z,35.10
2017-10-18T12:36:00.632Z,23.67
2017-10-18T12:38:29.075Z,21.33
2017-10-18T12:40:57.660Z,24.47
2017-10-18T12:43:26.143Z,45.70
2017-10-18T12:45:54.619Z,31.03
2017-10-18T12:48:23.092Z,30.03
2017-10-18T12:50:51.566Z,35.57
2017-10-18T12:53:20.006Z,29.50
2017-10-18T12:55:48.450Z,19.07
2017-10-18T12:58:16.918Z,26.83
2017-10-18T13:00:45.357Z,31.37
2017-10-18T13:03:13.816Z,28.33
2017-10-18T13:05:42.252Z,26.10
2017-10-18T13:08:10.726Z,26.07
2017-10-18T13:10:39.941Z,20.37
2017-10-18T13:13:08.401Z,27.03
2017-10-18T13:15:37.605Z,41.13
2017-10-18T13:18:06.835Z,32.17
2017-10-18T13:20:35.280Z,35.10
2017-10-18T13:23:04.510Z,37.07
2017-10-18T13:25:33.005Z,30.43
2017-10-18T13:28:02.102Z,38.60
2017-10-18T13:30:30.573Z,30.90
2017-10-18T13:32:59.270Z,37.80
2017-10-18T13:35:27.752Z,35.00
2017-10-18T13:37:56.233Z,35.63
2017-10-18T13:40:24.698Z,24.63
2017-10-18T13:42:53.148Z,29.17
2017-10-18T13:45:22.377Z,31.87
2017-10-18T13:47:50.878Z,45.10
2017-10-18T13:50:19.337Z,24.70
2017-10-18T13:52:47.774Z,40.87
2017-10-18T13:55:16.237Z,28.57
2017-10-18T13:57:44.678Z,22.53
2017-10-18T14:00:13.141Z,28.83
2017-10-18T14:02:42.355Z,22.13
2017-10-18T14:05:10.974Z,34.13
2017-10-18T14:07:39.450Z,28.80
2017-10-18T14:10:07.910Z,26.77
2017-10-18T14:12:36.355Z,40.33
2017-10-18T14:15:04.891Z,33.00
2017-10-18T14:17:33.338Z,27.63
2017-10-18T14:20:02.681Z,35.67
2017-10-18T14:22:31.139Z,33.13
2017-10-18T14:24:59.646Z,23.63
2017-10-18T14:27:28.128Z,37.37
2017-10-18T14:29:56.589Z,33.07
2017-10-18T14:32:25.087Z,33.07
2017-10-18T14:34:53.526Z,28.03
2017-10-18T14:37:22.753Z,27.20
2017-10-18T14:39:51.255Z,32.37
2017-10-18T14:42:19.717Z,18.47
2017-10-18T14:44:48.162Z,55.93
2017-10-18T14:47:17.410Z,35.33
2017-10-18T14:49:45.888Z,28.87
2017-10-18T14:52:14.348Z,38.10
2017-10-18T14:54:43.549Z,31.67
2017-10-18T14:57:12.010Z,46.00
2017-10-18T14:59:41.262Z,40.33
2017-10-18T15:02:09.722Z,26.23
2017-10-18T15:04:38.181Z,35.80
2017-10-18T15:07:07.405Z,27.93
2017-10-18T15:09:35.853Z,29.23
2017-10-18T15:12:05.088Z,32.73
2017-10-18T15:14:33.597Z,34.67
2017-10-18T15:17:02.076Z,44.87
2017-10-18T15:19:30.529Z,32.83
2017-10-18T15:21:59.017Z,20.33
2017-10-18T15:24:27.461Z,35.47
2017-10-18T15:26:56.671Z,28.97
2017-10-18T15:29:25.897Z,30.30
2017-10-18T15:31:54.342Z,33.00
2017-10-18T15:34:23.573Z,45.10
2017-10-18T15:36:52.019Z,51.83
2017-10-18T15:39:36.532Z,33.00
2017-10-18T15:42:05.801Z,32.80
2017-10-18T15:44:35.129Z,40.93
2017-10-18T15:47:04.433Z,36.87
2017-10-18T15:49:32.893Z,45.07
2017-10-18T15:52:01.333Z,55.40
2017-10-18T15:54:29.806Z,40.70
2017-10-18T15:56:58.353Z,44.50
2017-10-18T15:59:26.827Z,26.07
2017-10-18T16:01:55.267Z,40.53
2017-10-18T16:04:23.729Z,26.53
2017-10-18T16:06:52.181Z,34.97
2017-10-18T16:09:20.665Z,43.33
2017-10-18T16:11:49.105Z,37.60
2017-10-18T16:14:18.446Z,39.97
2017-10-18T16:16:46.893Z,33.40
2017-10-18T16:19:16.110Z,65.80
2017-10-18T16:21:44.574Z,53.37
2017-10-18T16:24:13.789Z,45.23
2017-10-18T16:26:42.291Z,38.30
2017-10-18T16:29:10.734Z,40.07
2017-10-18T16:31:39.961Z,43.93
2017-10-18T16:34:08.405Z,38.33
2017-10-18T16:36:36.935Z,54.70
2017-10-18T16:39:05.380Z,61.57
2017-10-18T16:41:33.867Z,55.00
2017-10-18T16:44:03.069Z,61.20
2017-10-18T16:46:32.404Z,63.53
2017-10-18T16:49:00.851Z,42.07
2017-10-18T16:51:30.086Z,50.07
2017-10-18T16:53:58.568Z,69.63
2017-10-18T16:56:27.151Z,71.97
2017-10-18T16:58:55.597Z,57.47
2017-10-18T17:01:24.811Z,50.67
2017-10-18T17:03:53.309Z,47.00
2017-10-18T17:06:21.758Z,64.73
2017-10-18T17:08:50.991Z,48.00
2017-10-18T17:11:19.469Z,63.20
2017-10-18T17:13:47.945Z,59.77
2017-10-18T17:16:16.396Z,52.03
2017-10-18T17:18:45.625Z,55.10
2017-10-18T17:21:14.081Z,56.57
2017-10-18T17:23:43.419Z,51.33
2017-10-18T17:26:11.901Z,40.63
2017-10-18T17:28:40.490Z,57.20
2017-10-18T17:31:08.929Z,46.27
2017-10-18T17:33:38.166Z,73.53
2017-10-18T17:36:06.613Z,55.30
2017-10-18T17:38:35.875Z,39.13
2017-10-18T17:41:04.438Z,48.17
2017-10-18T17:43:32.886Z,44.87
2017-10-18T17:46:02.122Z,37.37
2017-10-18T17:48:30.587Z,46.53
2017-10-18T17:50:59.069Z,54.10
2017-10-18T17:53:27.565Z,41.17
2017-10-18T17:55:56.034Z,38.60
2017-10-18T17:58:24.485Z,52.67
2017-10-18T18:00:53.714Z,71.00
2017-10-18T18:03:22.210Z,72.43
2017-10-18T18:05:50.694Z,96.80
2017-10-18T18:08:19.137Z,62.80
2017-10-18T18:10:48.474Z,46.97
2017-10-18T18:13:16.917Z,67.10
2017-10-18T18:15:46.253Z,72.57
2017-10-18T18:18:14.706Z,62.30
2017-10-18T18:20:43.965Z,57.07
2017-10-18T18:23:12.410Z,71.20
2017-10-18T18:25:40.865Z,75.93
2017-10-18T18:28:10.095Z,62.60
2017-10-18T18:30:38.537Z,71.67
2017-10-18T18:33:07.770Z,68.00
2017-10-18T18:35:36.210Z,83.40
2017-10-18T18:38:05.451Z,65.60
2017-10-18T18:40:33.898Z,72.27
2017-10-18T18:43:03.144Z,63.40
2017-10-18T18:45:31.585Z,75.77
2017-10-18T18:48:00.819Z,107.43
2017-10-18T18:50:29.258Z,67.20
2017-10-18T18:52:58.494Z,81.03
2017-10-18T18:55:26.954Z,59.00
2017-10-18T18:57:56.192Z,65.50
2017-10-18T19:00:24.668Z,57.00
2017-10-18T19:02:53.129Z,61.43
2017-10-18T19:05:21.584Z,66.70
2017-10-18T19:07:50.813Z,67.40
2017-10-18T19:10:19.260Z,64.77
2017-10-18T19:12:48.512Z,68.97
2017-10-18T19:15:16.953Z,71.93
2017-10-18T19:17:46.181Z,61.27
2017-10-18T19:20:14.621Z,56.23
2017-10-18T19:22:43.868Z,46.57
2017-10-18T19:25:12.322Z,57.90
2017-10-18T19:27:41.549Z,66.20
2017-10-18T19:30:10.035Z,52.23
2017-10-18T19:32:38.519Z,71.97
2017-10-18T19:35:06.985Z,84.67
2017-10-18T19:37:35.430Z,77.07
2017-10-18T19:40:04.665Z,60.03
2017-10-18T19:42:33.165Z,53.27
2017-10-18T19:45:01.747Z,67.33
2017-10-18T19:47:30.189Z,63.40
2017-10-18T19:49:59.428Z,51.40
2017-10-18T19:52:27.870Z,44.23
2017-10-18T19:54:57.211Z,60.90
2017-10-18T19:57:25.649Z,61.90
2017-10-18T19:59:54.882Z,55.10
2017-10-18T20:02:23.365Z,45.13
2017-10-18T20:04:51.878Z,66.60
2017-10-18T20:07:20.326Z,59.73
2017-10-18T20:09:48.820Z,45.10
2017-10-18T20:12:17.285Z,50.67
2017-10-18T20:14:45.731Z,49.60
2017-10-18T20:17:14.965Z,58.10
2017-10-18T20:19:43.413Z,43.63
2017-10-18T20:22:12.651Z,48.23
2017-10-18T20:24:41.141Z,52.53
2017-10-18T20:27:09.633Z,52.80
2017-10-18T20:29:38.110Z,81.13
2017-10-18T20:32:06.573Z,39.47
2017-10-18T20:34:35.008Z,47.03
2017-10-18T20:37:03.483Z,70.10
2017-10-18T20:39:31.936Z,53.17
2017-10-18T20:42:00.442Z,60.33
2017-10-18T20:44:28.884Z,56.90
2017-10-18T20:46:57.373Z,57.23
2017-10-18T20:49:25.864Z,66.73
2017-10-18T20:51:54.309Z,52.30
2017-10-18T20:54:23.639Z,54.63
2017-10-18T20:56:52.089Z,57.23
2017-10-18T20:59:21.323Z,50.03
2017-10-18T21:01:49.800Z,60.50
2017-10-18T21:04:18.265Z,45.07
2017-10-18T21:06:46.710Z,64.33
2017-10-18T21:09:15.189Z,60.00
2017-10-18T21:11:43.637Z,61.97
2017-10-18T21:14:12.215Z,54.70
2017-10-18T21:16:40.702Z,65.13
2017-10-18T21:19:09.165Z,59.70
2017-10-18T21:21:37.657Z,51.87
2017-10-18T21:24:06.137Z,55.57
2017-10-18T21:26:34.583Z,57.07
2017-10-18T21:29:03.809Z,57.97
2017-10-18T21:31:32.262Z,65.27
2017-10-18T21:34:01.487Z,58.30
2017-10-18T21:36:29.934Z,56.80
2017-10-18T21:38:58.400Z,88.73
2017-10-18T21:41:26.910Z,63.20
2017-10-18T21:43:56.104Z,63.40
2017-10-18T21:46:25.560Z,49.73
2017-10-18T21:48:54.010Z,61.33
2017-10-18T21:51:23.332Z,56.53
2017-10-18T21:53:51.828Z,55.17
2017-10-18T21:56:20.300Z,52.57
2017-10-18T21:58:48.752Z,48.83
2017-10-18T22:01:17.976Z,54.80
2017-10-18T22:03:46.419Z,53.43
2017-10-18T22:06:15.663Z,47.63
2017-10-18T22:08:44.154Z,44.23
2017-10-18T22:11:12.734Z,61.37
2017-10-18T22:13:41.212Z,53.57
2017-10-18T22:16:09.680Z,43.17
2017-10-18T22:18:38.118Z,58.70
2017-10-18T22:21:06.613Z,38.90
2017-10-18T22:23:35.822Z,59.40
2017-10-18T22:26:05.062Z,58.50
2017-10-18T22:28:33.529Z,37.70
2017-10-18T22:31:01.966Z,44.83
2017-10-18T22:33:31.205Z,59.03
2017-10-18T22:35:59.646Z,75.43
2017-10-18T22:38:28.182Z,73.47
2017-10-18T22:40:56.629Z,60.90
2017-10-18T22:43:25.868Z,67.00
2017-10-18T22:45:54.318Z,62.07
2017-10-18T22:48:23.550Z,74.17
2017-10-18T22:50:51.997Z,82.00
2017-10-18T22:53:21.332Z,85.60
2017-10-18T22:55:49.811Z,88.40
2017-10-18T22:58:18.340Z,83.03
2017-10-18T23:00:46.880Z,81.97
2017-10-18T23:03:15.364Z,72.60
2017-10-18T23:05:43.838Z,65.17
2017-10-18T23:08:12.327Z,78.20
2017-10-18T23:10:40.900Z,85.20
2017-10-18T23:13:09.344Z,76.07
2017-10-18T23:15:38.695Z,89.43
2017-10-18T23:18:07.177Z,103.23
2017-10-18T23:20:35.645Z,83.07
2017-10-18T23:23:04.101Z,101.23
2017-10-18T23:25:32.586Z,102.43
2017-10-18T23:28:01.798Z,97.70
2017-10-18T23:30:30.304Z,96.33
2017-10-18T23:32:58.777Z,102.17
2017-10-18T23:35:27.263Z,94.33
2017-10-18T23:37:55.708Z,111.30
2017-10-18T23:40:24.948Z,103.27
2017-10-18T23:42:53.398Z,107.90
2017-10-18T23:45:22.634Z,71.73
2017-10-18T23:47:51.076Z,72.03
2017-10-18T23:50:20.406Z,77.43
2017-10-18T23:52:54.195Z,91.43
2017-10-18T23:55:22.657Z,72.20
2017-10-18T23:57:51.868Z,72.73
